sensor_id;sensor_type;location;lat;lon;timestamp;P1;durP1;ratioP1;P2;durP2;ratioP2
23400;SDS011;11873;49.300;8.920;2023-04-15T00:00:50;4.37;;;2.90;;
23400;SDS011;11873;49.300;8.920;2023-04-15T00:05:50;3.97;;;2.70;;
23400;SDS011;11873;49.300;8.920;2023-04-15T00:10:51;3.83;;;3.00;;
23400;SDS011;11873;49.300;8.920;2023-04-15T00:15:52;4.13;;;2.60;;
23400;SDS011;11873;49.300;8.920;2023-04-15T00:20:52;2.67;;;2.40;;
23400;SDS011;11873;49.300;8.920;2023-04-15T00:25:52;6.33;;;4.17;;
23400;SDS011;11873;49.300;8.920;2023-04-15T00:30:53;3.13;;;2.70;;
23400;SDS011;11873;49.300;8.920;2023-04-15T00:35:53;3.30;;;2.53;;
23400;SDS011;11873;49.300;8.920;2023-04-15T00:40:54;5.97;;;2.60;;
23400;SDS011;11873;49.300;8.920;2023-04-15T00:45:55;2.93;;;2.73;;
23400;SDS011;11873;49.300;8.920;2023-04-15T00:50:56;4.60;;;2.60;;
23400;SDS011;11873;49.300;8.920;2023-04-15T00:55:56;5.60;;;2.80;;
23400;SDS011;11873;49.300;8.920;2023-04-15T01:00:56;2.50;;;2.30;;
23400;SDS011;11873;49.300;8.920;2023-04-15T01:05:57;4.43;;;2.77;;
23400;SDS011;11873;49.300;8.920;2023-04-15T01:10:58;2.70;;;2.50;;
23400;SDS011;11873;49.300;8.920;2023-04-15T01:16:00;2.90;;;2.53;;
23400;SDS011;11873;49.300;8.920;2023-04-15T01:21:00;4.07;;;2.77;;
23400;SDS011;11873;49.300;8.920;2023-04-15T01:26:01;2.93;;;2.60;;
23400;SDS011;11873;49.300;8.920;2023-04-15T01:31:08;4.80;;;2.90;;
23400;SDS011;11873;49.300;8.920;2023-04-15T01:36:09;3.03;;;2.73;;
23400;SDS011;11873;49.300;8.920;2023-04-15T01:41:27;4.07;;;2.77;;
23400;SDS011;11873;49.300;8.920;2023-04-15T01:46:28;2.90;;;2.57;;
23400;SDS011;11873;49.300;8.920;2023-04-15T01:51:28;3.70;;;2.60;;
23400;SDS011;11873;49.300;8.920;2023-04-15T01:56:29;2.70;;;2.50;;
23400;SDS011;11873;49.300;8.920;2023-04-15T02:01:29;6.37;;;2.90;;
23400;SDS011;11873;49.300;8.920;2023-04-15T02:06:29;2.70;;;2.50;;
23400;SDS011;11873;49.300;8.920;2023-04-15T02:11:29;2.70;;;2.50;;
23400;SDS011;11873;49.300;8.920;2023-04-15T02:16:30;3.40;;;2.50;;
23400;SDS011;11873;49.300;8.920;2023-04-15T02:21:31;2.97;;;2.77;;
23400;SDS011;11873;49.300;8.920;2023-04-15T02:26:31;2.70;;;2.50;;
23400;SDS011;11873;49.300;8.920;2023-04-15T02:31:32;2.70;;;2.30;;
23400;SDS011;11873;49.300;8.920;2023-04-15T02:36:32;5.03;;;2.80;;
23400;SDS011;11873;49.300;8.920;2023-04-15T02:41:33;4.00;;;3.07;;
23400;SDS011;11873;49.300;8.920;2023-04-15T02:46:33;2.90;;;2.60;;
23400;SDS011;11873;49.300;8.920;2023-04-15T02:51:34;3.08;;;2.75;;
23400;SDS011;11873;49.300;8.920;2023-04-15T02:56:34;4.57;;;3.00;;
23400;SDS011;11873;49.300;8.920;2023-04-15T03:01:34;5.27;;;4.03;;
23400;SDS011;11873;49.300;8.920;2023-04-15T03:06:35;5.80;;;4.07;;
23400;SDS011;11873;49.300;8.920;2023-04-15T03:11:35;5.80;;;3.90;;
23400;SDS011;11873;49.300;8.920;2023-04-15T03:16:35;4.57;;;3.43;;
23400;SDS011;11873;49.300;8.920;2023-04-15T03:21:36;4.70;;;3.37;;
23400;SDS011;11873;49.300;8.920;2023-04-15T03:26:36;4.03;;;3.37;;
23400;SDS011;11873;49.300;8.920;2023-04-15T03:31:36;4.20;;;3.17;;
23400;SDS011;11873;49.300;8.920;2023-04-15T03:36:37;4.60;;;3.90;;
23400;SDS011;11873;49.300;8.920;2023-04-15T03:41:37;4.23;;;3.77;;
23400;SDS011;11873;49.300;8.920;2023-04-15T03:46:38;7.13;;;3.97;;
23400;SDS011;11873;49.300;8.920;2023-04-15T03:51:38;9.10;;;6.10;;
23400;SDS011;11873;49.300;8.920;2023-04-15T03:56:38;7.40;;;5.73;;
23400;SDS011;11873;49.300;8.920;2023-04-15T04:01:39;6.00;;;4.00;;
23400;SDS011;11873;49.300;8.920;2023-04-15T04:06:39;3.13;;;2.83;;
23400;SDS011;11873;49.300;8.920;2023-04-15T04:11:40;3.40;;;3.00;;
23400;SDS011;11873;49.300;8.920;2023-04-15T04:16:40;2.70;;;2.43;;
23400;SDS011;11873;49.300;8.920;2023-04-15T04:21:41;4.13;;;3.63;;
23400;SDS011;11873;49.300;8.920;2023-04-15T04:26:41;5.13;;;3.83;;
23400;SDS011;11873;49.300;8.920;2023-04-15T04:31:41;7.73;;;3.80;;
23400;SDS011;11873;49.300;8.920;2023-04-15T04:36:41;5.60;;;3.77;;
23400;SDS011;11873;49.300;8.920;2023-04-15T04:41:42;4.97;;;3.47;;
23400;SDS011;11873;49.300;8.920;2023-04-15T04:46:42;3.53;;;3.23;;
23400;SDS011;11873;49.300;8.920;2023-04-15T04:51:42;3.70;;;3.40;;
23400;SDS011;11873;49.300;8.920;2023-04-15T04:56:43;6.33;;;5.10;;
23400;SDS011;11873;49.300;8.920;2023-04-15T05:01:43;5.23;;;3.60;;
23400;SDS011;11873;49.300;8.920;2023-04-15T05:06:43;3.63;;;2.90;;
23400;SDS011;11873;49.300;8.920;2023-04-15T05:11:44;3.13;;;2.70;;
23400;SDS011;11873;49.300;8.920;2023-04-15T05:16:44;3.93;;;2.77;;
23400;SDS011;11873;49.300;8.920;2023-04-15T05:21:44;3.27;;;2.77;;
23400;SDS011;11873;49.300;8.920;2023-04-15T05:26:45;2.80;;;2.60;;
23400;SDS011;11873;49.300;8.920;2023-04-15T05:31:45;3.90;;;2.67;;
23400;SDS011;11873;49.300;8.920;2023-04-15T05:36:45;2.63;;;2.43;;
23400;SDS011;11873;49.300;8.920;2023-04-15T05:41:46;3.53;;;2.20;;
23400;SDS011;11873;49.300;8.920;2023-04-15T05:46:46;3.00;;;2.70;;
23400;SDS011;11873;49.300;8.920;2023-04-15T05:51:47;4.27;;;3.83;;
23400;SDS011;11873;49.300;8.920;2023-04-15T05:56:47;3.40;;;3.10;;
23400;SDS011;11873;49.300;8.920;2023-04-15T06:01:48;12.23;;;8.97;;
23400;SDS011;11873;49.300;8.920;2023-04-15T06:06:48;2.80;;;2.50;;
23400;SDS011;11873;49.300;8.920;2023-04-15T06:11:49;2.83;;;2.63;;
23400;SDS011;11873;49.300;8.920;2023-04-15T06:16:50;4.43;;;3.13;;
23400;SDS011;11873;49.300;8.920;2023-04-15T06:21:51;8.67;;;6.93;;
23400;SDS011;11873;49.300;8.920;2023-04-15T06:26:51;7.17;;;5.57;;
23400;SDS011;11873;49.300;8.920;2023-04-15T06:31:52;5.93;;;5.37;;
23400;SDS011;11873;49.300;8.920;2023-04-15T06:36:52;5.50;;;4.33;;
23400;SDS011;11873;49.300;8.920;2023-04-15T06:41:53;2.73;;;2.53;;
23400;SDS011;11873;49.300;8.920;2023-04-15T06:46:53;2.63;;;2.43;;
23400;SDS011;11873;49.300;8.920;2023-04-15T06:51:53;3.57;;;2.60;;
23400;SDS011;11873;49.300;8.920;2023-04-15T06:56:54;4.23;;;2.50;;
23400;SDS011;11873;49.300;8.920;2023-04-15T07:01:54;3.07;;;2.77;;
23400;SDS011;11873;49.300;8.920;2023-04-15T07:06:54;3.07;;;2.63;;
23400;SDS011;11873;49.300;8.920;2023-04-15T07:11:55;2.93;;;2.70;;
23400;SDS011;11873;49.300;8.920;2023-04-15T07:16:55;3.83;;;2.70;;
23400;SDS011;11873;49.300;8.920;2023-04-15T07:21:55;3.13;;;2.60;;
23400;SDS011;11873;49.300;8.920;2023-04-15T07:26:56;2.60;;;2.40;;
23400;SDS011;11873;49.300;8.920;2023-04-15T07:31:56;3.40;;;2.83;;
23400;SDS011;11873;49.300;8.920;2023-04-15T07:36:56;5.30;;;2.77;;
23400;SDS011;11873;49.300;8.920;2023-04-15T07:41:57;3.20;;;2.80;;
23400;SDS011;11873;49.300;8.920;2023-04-15T07:46:57;3.83;;;2.87;;
23400;SDS011;11873;49.300;8.920;2023-04-15T07:51:57;2.90;;;2.60;;
23400;SDS011;11873;49.300;8.920;2023-04-15T07:56:58;4.13;;;2.60;;
23400;SDS011;11873;49.300;8.920;2023-04-15T08:01:58;2.97;;;2.60;;
23400;SDS011;11873;49.300;8.920;2023-04-15T08:06:58;2.87;;;2.57;;
23400;SDS011;11873;49.300;8.920;2023-04-15T08:11:58;3.10;;;2.80;;
23400;SDS011;11873;49.300;8.920;2023-04-15T08:16:58;3.50;;;2.40;;
23400;SDS011;11873;49.300;8.920;2023-04-15T08:21:59;3.07;;;2.60;;
23400;SDS011;11873;49.300;8.920;2023-04-15T08:26:59;2.67;;;2.43;;
23400;SDS011;11873;49.300;8.920;2023-04-15T08:31:59;6.00;;;3.20;;
23400;SDS011;11873;49.300;8.920;2023-04-15T08:37:00;7.10;;;5.93;;
23400;SDS011;11873;49.300;8.920;2023-04-15T08:42:00;4.23;;;3.03;;
23400;SDS011;11873;49.300;8.920;2023-04-15T08:47:01;2.43;;;2.23;;
23400;SDS011;11873;49.300;8.920;2023-04-15T08:52:01;2.90;;;2.70;;
23400;SDS011;11873;49.300;8.920;2023-04-15T08:57:02;5.93;;;3.87;;
23400;SDS011;11873;49.300;8.920;2023-04-15T09:02:02;3.80;;;2.33;;
23400;SDS011;11873;49.300;8.920;2023-04-15T09:07:02;3.43;;;2.57;;
23400;SDS011;11873;49.300;8.920;2023-04-15T09:12:02;4.77;;;3.60;;
23400;SDS011;11873;49.300;8.920;2023-04-15T09:17:03;5.37;;;2.60;;
23400;SDS011;11873;49.300;8.920;2023-04-15T09:22:03;4.93;;;2.03;;
23400;SDS011;11873;49.300;8.920;2023-04-15T09:27:06;5.07;;;2.37;;
23400;SDS011;11873;49.300;8.920;2023-04-15T09:32:10;2.77;;;1.83;;
23400;SDS011;11873;49.300;8.920;2023-04-15T09:37:10;2.47;;;2.30;;
23400;SDS011;11873;49.300;8.920;2023-04-15T09:42:10;1.90;;;1.80;;
23400;SDS011;11873;49.300;8.920;2023-04-15T09:47:25;2.83;;;2.20;;
23400;SDS011;11873;49.300;8.920;2023-04-15T09:52:26;2.67;;;1.87;;
23400;SDS011;11873;49.300;8.920;2023-04-15T09:57:33;2.57;;;1.70;;
23400;SDS011;11873;49.300;8.920;2023-04-15T10:02:34;3.33;;;2.00;;
23400;SDS011;11873;49.300;8.920;2023-04-15T10:07:34;2.80;;;1.97;;
23400;SDS011;11873;49.300;8.920;2023-04-15T10:12:36;3.00;;;2.10;;
23400;SDS011;11873;49.300;8.920;2023-04-15T10:17:36;3.30;;;2.47;;
23400;SDS011;11873;49.300;8.920;2023-04-15T10:22:36;2.43;;;2.10;;
23400;SDS011;11873;49.300;8.920;2023-04-15T10:27:37;3.23;;;2.37;;
23400;SDS011;11873;49.300;8.920;2023-04-15T10:32:38;2.63;;;1.63;;
23400;SDS011;11873;49.300;8.920;2023-04-15T10:37:38;3.20;;;1.70;;
23400;SDS011;11873;49.300;8.920;2023-04-15T10:42:39;1.80;;;1.70;;
23400;SDS011;11873;49.300;8.920;2023-04-15T10:47:39;2.13;;;1.40;;
23400;SDS011;11873;49.300;8.920;2023-04-15T10:52:39;3.47;;;1.83;;
23400;SDS011;11873;49.300;8.920;2023-04-15T10:57:40;2.20;;;1.57;;
23400;SDS011;11873;49.300;8.920;2023-04-15T11:02:44;1.90;;;1.57;;
23400;SDS011;11873;49.300;8.920;2023-04-15T11:12:45;2.13;;;1.40;;
23400;SDS011;11873;49.300;8.920;2023-04-15T11:17:45;0.90;;;0.90;;
23400;SDS011;11873;49.300;8.920;2023-04-15T11:22:47;2.10;;;1.20;;
23400;SDS011;11873;49.300;8.920;2023-04-15T11:27:47;1.90;;;0.90;;
23400;SDS011;11873;49.300;8.920;2023-04-15T11:32:48;2.33;;;1.10;;
23400;SDS011;11873;49.300;8.920;2023-04-15T11:37:48;1.00;;;1.00;;
23400;SDS011;11873;49.300;8.920;2023-04-15T11:48:08;1.10;;;1.10;;
23400;SDS011;11873;49.300;8.920;2023-04-15T11:53:10;1.47;;;1.20;;
23400;SDS011;11873;49.300;8.920;2023-04-15T11:58:13;2.10;;;1.47;;
23400;SDS011;11873;49.300;8.920;2023-04-15T12:03:30;1.50;;;1.40;;
23400;SDS011;11873;49.300;8.920;2023-04-15T12:13:50;4.03;;;1.90;;
23400;SDS011;11873;49.300;8.920;2023-04-15T12:18:50;2.90;;;1.30;;
23400;SDS011;11873;49.300;8.920;2023-04-15T12:23:53;1.30;;;1.20;;
23400;SDS011;11873;49.300;8.920;2023-04-15T12:28:54;2.43;;;1.13;;
23400;SDS011;11873;49.300;8.920;2023-04-15T12:33:55;1.60;;;1.10;;
23400;SDS011;11873;49.300;8.920;2023-04-15T12:38:55;1.30;;;1.20;;
23400;SDS011;11873;49.300;8.920;2023-04-15T12:43:55;2.17;;;1.27;;
23400;SDS011;11873;49.300;8.920;2023-04-15T12:48:55;1.63;;;1.53;;
23400;SDS011;11873;49.300;8.920;2023-04-15T12:53:56;2.57;;;1.40;;
23400;SDS011;11873;49.300;8.920;2023-04-15T12:58:56;1.07;;;1.07;;
23400;SDS011;11873;49.300;8.920;2023-04-15T13:03:56;2.10;;;1.20;;
23400;SDS011;11873;49.300;8.920;2023-04-15T13:08:56;2.67;;;1.67;;
23400;SDS011;11873;49.300;8.920;2023-04-15T13:13:56;1.37;;;1.27;;
23400;SDS011;11873;49.300;8.920;2023-04-15T13:18:58;1.13;;;1.13;;
23400;SDS011;11873;49.300;8.920;2023-04-15T13:23:58;1.43;;;1.07;;
23400;SDS011;11873;49.300;8.920;2023-04-15T13:28:58;1.20;;;1.07;;
23400;SDS011;11873;49.300;8.920;2023-04-15T13:33:58;1.90;;;1.63;;
23400;SDS011;11873;49.300;8.920;2023-04-15T13:38:59;1.83;;;1.30;;
23400;SDS011;11873;49.300;8.920;2023-04-15T13:43:59;2.73;;;1.30;;
23400;SDS011;11873;49.300;8.920;2023-04-15T13:48:59;2.00;;;1.60;;
23400;SDS011;11873;49.300;8.920;2023-04-15T13:53:59;2.43;;;1.50;;
23400;SDS011;11873;49.300;8.920;2023-04-15T13:58:59;2.40;;;1.57;;
23400;SDS011;11873;49.300;8.920;2023-04-15T14:04:00;1.60;;;1.47;;
23400;SDS011;11873;49.300;8.920;2023-04-15T14:09:00;1.50;;;1.40;;
23400;SDS011;11873;49.300;8.920;2023-04-15T14:14:00;1.93;;;1.30;;
23400;SDS011;11873;49.300;8.920;2023-04-15T14:19:01;1.37;;;1.27;;
23400;SDS011;11873;49.300;8.920;2023-04-15T14:24:01;1.70;;;1.37;;
23400;SDS011;11873;49.300;8.920;2023-04-15T14:29:01;2.17;;;1.47;;
23400;SDS011;11873;49.300;8.920;2023-04-15T14:34:01;1.50;;;1.40;;
23400;SDS011;11873;49.300;8.920;2023-04-15T14:39:02;1.70;;;1.60;;
23400;SDS011;11873;49.300;8.920;2023-04-15T14:44:02;1.27;;;1.23;;
23400;SDS011;11873;49.300;8.920;2023-04-15T14:49:02;1.33;;;1.23;;
23400;SDS011;11873;49.300;8.920;2023-04-15T14:54:02;1.87;;;1.20;;
23400;SDS011;11873;49.300;8.920;2023-04-15T14:59:02;1.63;;;1.53;;
23400;SDS011;11873;49.300;8.920;2023-04-15T15:04:03;1.43;;;1.30;;
23400;SDS011;11873;49.300;8.920;2023-04-15T15:09:03;1.60;;;1.50;;
23400;SDS011;11873;49.300;8.920;2023-04-15T15:14:03;1.00;;;1.00;;
23400;SDS011;11873;49.300;8.920;2023-04-15T15:19:04;1.40;;;1.17;;
23400;SDS011;11873;49.300;8.920;2023-04-15T15:24:04;6.07;;;3.47;;
23400;SDS011;11873;49.300;8.920;2023-04-15T15:29:04;0.90;;;0.90;;
23400;SDS011;11873;49.300;8.920;2023-04-15T15:34:04;1.03;;;1.00;;
23400;SDS011;11873;49.300;8.920;2023-04-15T15:39:04;1.23;;;1.13;;
23400;SDS011;11873;49.300;8.920;2023-04-15T15:44:05;1.70;;;1.60;;
23400;SDS011;11873;49.300;8.920;2023-04-15T15:49:05;1.50;;;1.40;;
23400;SDS011;11873;49.300;8.920;2023-04-15T15:54:05;3.07;;;2.47;;
23400;SDS011;11873;49.300;8.920;2023-04-15T15:59:05;0.93;;;0.93;;
23400;SDS011;11873;49.300;8.920;2023-04-15T16:04:06;1.70;;;1.60;;
23400;SDS011;11873;49.300;8.920;2023-04-15T16:09:06;1.50;;;1.40;;
23400;SDS011;11873;49.300;8.920;2023-04-15T16:14:06;0.73;;;0.73;;
23400;SDS011;11873;49.300;8.920;2023-04-15T16:19:06;0.73;;;0.73;;
23400;SDS011;11873;49.300;8.920;2023-04-15T16:24:06;0.70;;;0.70;;
23400;SDS011;11873;49.300;8.920;2023-04-15T16:29:07;1.70;;;0.67;;
23400;SDS011;11873;49.300;8.920;2023-04-15T16:34:07;0.70;;;0.70;;
23400;SDS011;11873;49.300;8.920;2023-04-15T16:39:07;0.70;;;0.70;;
23400;SDS011;11873;49.300;8.920;2023-04-15T16:44:07;2.50;;;1.00;;
23400;SDS011;11873;49.300;8.920;2023-04-15T16:49:07;1.23;;;1.10;;
23400;SDS011;11873;49.300;8.920;2023-04-15T16:54:08;1.60;;;1.50;;
23400;SDS011;11873;49.300;8.920;2023-04-15T16:59:08;1.60;;;1.20;;
23400;SDS011;11873;49.300;8.920;2023-04-15T17:04:08;0.97;;;0.97;;
23400;SDS011;11873;49.300;8.920;2023-04-15T17:09:08;1.70;;;1.53;;
23400;SDS011;11873;49.300;8.920;2023-04-15T17:14:08;1.43;;;1.10;;
23400;SDS011;11873;49.300;8.920;2023-04-15T17:19:09;1.42;;;1.05;;
23400;SDS011;11873;49.300;8.920;2023-04-15T17:24:09;1.70;;;0.90;;
23400;SDS011;11873;49.300;8.920;2023-04-15T17:29:09;2.00;;;1.70;;
23400;SDS011;11873;49.300;8.920;2023-04-15T17:34:09;1.10;;;1.00;;
23400;SDS011;11873;49.300;8.920;2023-04-15T17:39:09;1.37;;;1.27;;
23400;SDS011;11873;49.300;8.920;2023-04-15T17:44:09;1.77;;;1.67;;
23400;SDS011;11873;49.300;8.920;2023-04-15T17:49:10;1.60;;;1.50;;
23400;SDS011;11873;49.300;8.920;2023-04-15T17:54:10;1.60;;;1.50;;
23400;SDS011;11873;49.300;8.920;2023-04-15T17:59:10;1.83;;;1.43;;
23400;SDS011;11873;49.300;8.920;2023-04-15T18:04:10;1.00;;;1.00;;
23400;SDS011;11873;49.300;8.920;2023-04-15T18:09:10;1.33;;;1.23;;
23400;SDS011;11873;49.300;8.920;2023-04-15T18:14:11;1.20;;;1.20;;
23400;SDS011;11873;49.300;8.920;2023-04-15T18:19:11;1.70;;;1.60;;
23400;SDS011;11873;49.300;8.920;2023-04-15T18:24:11;1.67;;;1.57;;
23400;SDS011;11873;49.300;8.920;2023-04-15T18:29:11;1.57;;;1.47;;
23400;SDS011;11873;49.300;8.920;2023-04-15T18:34:11;1.80;;;1.70;;
23400;SDS011;11873;49.300;8.920;2023-04-15T18:39:11;1.73;;;1.63;;
23400;SDS011;11873;49.300;8.920;2023-04-15T18:44:12;3.60;;;2.57;;
23400;SDS011;11873;49.300;8.920;2023-04-15T18:49:12;4.23;;;3.73;;
23400;SDS011;11873;49.300;8.920;2023-04-15T18:54:12;2.10;;;1.90;;
23400;SDS011;11873;49.300;8.920;2023-04-15T18:59:12;1.87;;;1.77;;
23400;SDS011;11873;49.300;8.920;2023-04-15T19:04:12;2.13;;;2.00;;
23400;SDS011;11873;49.300;8.920;2023-04-15T19:09:13;1.80;;;1.70;;
23400;SDS011;11873;49.300;8.920;2023-04-15T19:14:13;2.13;;;2.03;;
23400;SDS011;11873;49.300;8.920;2023-04-15T19:19:13;2.40;;;2.20;;
23400;SDS011;11873;49.300;8.920;2023-04-15T19:24:14;1.77;;;1.67;;
23400;SDS011;11873;49.300;8.920;2023-04-15T19:29:15;2.80;;;2.60;;
23400;SDS011;11873;49.300;8.920;2023-04-15T19:34:15;2.37;;;2.17;;
23400;SDS011;11873;49.300;8.920;2023-04-15T19:39:15;1.93;;;1.83;;
23400;SDS011;11873;49.300;8.920;2023-04-15T19:44:15;1.83;;;1.73;;
23400;SDS011;11873;49.300;8.920;2023-04-15T19:49:16;2.07;;;1.97;;
23400;SDS011;11873;49.300;8.920;2023-04-15T19:54:16;2.10;;;2.00;;
23400;SDS011;11873;49.300;8.920;2023-04-15T19:59:17;2.40;;;2.20;;
23400;SDS011;11873;49.300;8.920;2023-04-15T20:04:17;2.20;;;2.03;;
23400;SDS011;11873;49.300;8.920;2023-04-15T20:09:17;2.20;;;2.00;;
23400;SDS011;11873;49.300;8.920;2023-04-15T20:14:17;1.83;;;1.73;;
23400;SDS011;11873;49.300;8.920;2023-04-15T20:19:17;2.20;;;2.00;;
23400;SDS011;11873;49.300;8.920;2023-04-15T20:24:18;2.17;;;2.07;;
23400;SDS011;11873;49.300;8.920;2023-04-15T20:29:18;2.27;;;2.13;;
23400;SDS011;11873;49.300;8.920;2023-04-15T20:34:18;2.83;;;2.63;;
23400;SDS011;11873;49.300;8.920;2023-04-15T20:39:18;2.30;;;2.10;;
23400;SDS011;11873;49.300;8.920;2023-04-15T20:44:18;2.87;;;2.53;;
23400;SDS011;11873;49.300;8.920;2023-04-15T20:49:18;2.60;;;2.40;;
23400;SDS011;11873;49.300;8.920;2023-04-15T20:54:19;2.67;;;2.47;;
23400;SDS011;11873;49.300;8.920;2023-04-15T20:59:19;3.93;;;2.70;;
23400;SDS011;11873;49.300;8.920;2023-04-15T21:04:19;2.87;;;2.63;;
23400;SDS011;11873;49.300;8.920;2023-04-15T21:09:19;2.60;;;2.40;;
23400;SDS011;11873;49.300;8.920;2023-04-15T21:14:19;3.13;;;2.67;;
23400;SDS011;11873;49.300;8.920;2023-04-15T21:19:19;2.53;;;2.33;;
23400;SDS011;11873;49.300;8.920;2023-04-15T21:24:20;2.83;;;2.63;;
23400;SDS011;11873;49.300;8.920;2023-04-15T21:29:20;5.10;;;2.50;;
23400;SDS011;11873;49.300;8.920;2023-04-15T21:34:20;2.83;;;2.57;;
23400;SDS011;11873;49.300;8.920;2023-04-15T21:39:20;3.80;;;2.87;;
23400;SDS011;11873;49.300;8.920;2023-04-15T21:44:20;3.57;;;3.00;;
23400;SDS011;11873;49.300;8.920;2023-04-15T21:49:20;3.30;;;2.90;;
23400;SDS011;11873;49.300;8.920;2023-04-15T21:54:21;3.17;;;2.90;;
23400;SDS011;11873;49.300;8.920;2023-04-15T21:59:21;4.03;;;3.63;;
23400;SDS011;11873;49.300;8.920;2023-04-15T22:04:21;3.73;;;3.30;;
23400;SDS011;11873;49.300;8.920;2023-04-15T22:09:21;3.47;;;3.17;;
23400;SDS011;11873;49.300;8.920;2023-04-15T22:14:21;3.80;;;3.50;;
23400;SDS011;11873;49.300;8.920;2023-04-15T22:19:21;3.57;;;3.27;;
23400;SDS011;11873;49.300;8.920;2023-04-15T22:24:22;3.97;;;3.57;;
23400;SDS011;11873;49.300;8.920;2023-04-15T22:29:22;4.23;;;3.83;;
23400;SDS011;11873;49.300;8.920;2023-04-15T22:34:22;4.10;;;3.70;;
23400;SDS011;11873;49.300;8.920;2023-04-15T22:39:22;3.90;;;3.57;;
23400;SDS011;11873;49.300;8.920;2023-04-15T22:44:22;3.83;;;3.53;;
23400;SDS011;11873;49.300;8.920;2023-04-15T22:49:23;4.53;;;4.13;;
23400;SDS011;11873;49.300;8.920;2023-04-15T22:54:23;4.40;;;4.00;;
23400;SDS011;11873;49.300;8.920;2023-04-15T22:59:24;4.57;;;4.13;;
23400;SDS011;11873;49.300;8.920;2023-04-15T23:04:24;4.20;;;3.80;;
23400;SDS011;11873;49.300;8.920;2023-04-15T23:09:24;4.07;;;3.63;;
23400;SDS011;11873;49.300;8.920;2023-04-15T23:14:24;4.67;;;4.27;;
23400;SDS011;11873;49.300;8.920;2023-04-15T23:19:25;4.60;;;3.93;;
23400;SDS011;11873;49.300;8.920;2023-04-15T23:24:25;3.73;;;3.43;;
23400;SDS011;11873;49.300;8.920;2023-04-15T23:29:25;3.93;;;3.60;;
23400;SDS011;11873;49.300;8.920;2023-04-15T23:34:25;3.73;;;3.33;;
23400;SDS011;11873;49.300;8.920;2023-04-15T23:39:25;3.30;;;3.00;;
23400;SDS011;11873;49.300;8.920;2023-04-15T23:44:25;3.20;;;2.90;;
23400;SDS011;11873;49.300;8.920;2023-04-15T23:49:26;3.60;;;3.30;;
23400;SDS011;11873;49.300;8.920;2023-04-15T23:54:26;4.30;;;2.83;;
23400;SDS011;11873;49.300;8.920;2023-04-15T23:59:26;2.70;;;2.50;;
